createdAt,value
2017-07-15T00:00:52.059Z,4.70
2017-07-15T00:03:19.495Z,4.17
2017-07-15T00:05:47.769Z,4.70
2017-07-15T00:08:15.267Z,5.13
2017-07-15T00:10:42.797Z,5.10
2017-07-15T00:13:11.780Z,5.07
2017-07-15T00:15:39.445Z,5.00
2017-07-15T00:18:06.979Z,4.53
2017-07-15T00:20:34.622Z,4.87
2017-07-15T00:23:02.289Z,4.80
2017-07-15T00:25:29.904Z,4.60
2017-07-15T00:27:57.574Z,4.63
2017-07-15T00:30:25.015Z,4.33
2017-07-15T00:32:52.481Z,4.83
2017-07-15T00:35:19.994Z,4.50
2017-07-15T00:37:47.667Z,4.23
2017-07-15T00:40:15.402Z,4.27
2017-07-15T00:42:43.075Z,4.40
2017-07-15T00:45:11.478Z,4.20
2017-07-15T00:47:39.367Z,4.27
2017-07-15T00:50:07.119Z,4.03
2017-07-15T00:52:36.250Z,3.53
2017-07-15T00:55:03.852Z,4.07
2017-07-15T00:57:31.290Z,3.27
2017-07-15T00:59:58.980Z,3.70
2017-07-15T01:02:26.579Z,3.60
2017-07-15T01:04:54.020Z,3.70
2017-07-15T01:07:21.446Z,3.40
2017-07-15T01:09:49.665Z,3.37
2017-07-15T01:12:17.203Z,3.17
2017-07-15T01:14:44.636Z,3.70
2017-07-15T01:17:12.826Z,5.30
2017-07-15T01:19:40.256Z,3.43
2017-07-15T01:22:08.463Z,4.00
2017-07-15T01:24:35.890Z,3.90
2017-07-15T01:27:05.119Z,3.90
2017-07-15T01:29:32.539Z,4.10
2017-07-15T01:32:00.752Z,4.10
2017-07-15T01:34:28.180Z,3.63
2017-07-15T01:36:56.377Z,4.00
2017-07-15T01:39:23.805Z,4.40
2017-07-15T01:41:52.007Z,3.80
2017-07-15T01:44:19.440Z,4.53
2017-07-15T01:46:46.863Z,4.30
2017-07-15T01:49:14.289Z,4.27
2017-07-15T01:51:41.736Z,3.43
2017-07-15T01:54:09.159Z,4.13
2017-07-15T01:56:37.370Z,4.50
2017-07-15T01:59:04.787Z,3.77
2017-07-15T02:01:32.991Z,3.40
2017-07-15T02:04:00.505Z,3.87
2017-07-15T02:06:28.717Z,3.47
2017-07-15T02:08:56.255Z,3.90
2017-07-15T02:11:24.456Z,3.60
2017-07-15T02:13:51.892Z,3.33
2017-07-15T02:16:19.346Z,3.87
2017-07-15T02:18:46.800Z,3.80
2017-07-15T02:21:14.987Z,3.57
2017-07-15T02:23:42.413Z,4.23
2017-07-15T02:26:10.617Z,3.73
2017-07-15T02:28:38.140Z,3.67
2017-07-15T02:31:06.350Z,3.40
2017-07-15T02:33:33.784Z,3.70
2017-07-15T02:36:02.015Z,3.83
2017-07-15T02:38:29.441Z,3.70
2017-07-15T02:40:56.877Z,3.70
2017-07-15T02:43:25.074Z,3.80
2017-07-15T02:45:52.500Z,3.50
2017-07-15T02:48:20.706Z,3.97
2017-07-15T02:50:48.191Z,3.37
2017-07-15T02:53:15.630Z,3.90
2017-07-15T02:55:43.079Z,3.90
2017-07-15T02:58:10.516Z,4.00
2017-07-15T03:00:37.943Z,3.97
2017-07-15T03:03:06.140Z,4.53
2017-07-15T03:05:33.582Z,4.50
2017-07-15T03:08:01.788Z,3.77
2017-07-15T03:10:29.217Z,4.03
2017-07-15T03:12:57.412Z,3.50
2017-07-15T03:15:24.888Z,3.93
2017-07-15T03:17:52.325Z,3.97
2017-07-15T03:20:19.745Z,3.73
2017-07-15T03:22:47.941Z,3.50
2017-07-15T03:25:15.381Z,3.90
2017-07-15T03:27:43.581Z,3.50
2017-07-15T03:30:12.021Z,4.10
2017-07-15T03:32:40.221Z,4.20
2017-07-15T03:35:07.661Z,4.17
2017-07-15T03:37:35.865Z,4.00
2017-07-15T03:40:03.345Z,4.40
2017-07-15T03:42:30.782Z,4.10
2017-07-15T03:44:58.206Z,3.70
2017-07-15T03:47:26.400Z,4.27
2017-07-15T03:49:53.996Z,4.30
2017-07-15T03:52:21.430Z,3.90
2017-07-15T03:54:48.860Z,4.17
2017-07-15T03:57:16.300Z,4.10
2017-07-15T03:59:43.740Z,4.50
2017-07-15T04:02:11.175Z,3.77
2017-07-15T04:04:38.610Z,3.90
2017-07-15T04:07:06.045Z,3.93
2017-07-15T04:09:33.480Z,4.03
2017-07-15T04:12:01.674Z,4.03
2017-07-15T04:14:29.101Z,4.47
2017-07-15T04:16:56.525Z,4.97
2017-07-15T04:19:23.966Z,4.10
2017-07-15T04:21:51.392Z,4.33
2017-07-15T04:24:18.833Z,4.63
2017-07-15T04:26:47.033Z,4.27
2017-07-15T04:29:14.485Z,5.00
2017-07-15T04:31:41.914Z,4.13
2017-07-15T04:34:10.193Z,5.60
2017-07-15T04:36:37.617Z,4.50
2017-07-15T04:39:05.046Z,4.03
2017-07-15T04:41:32.486Z,3.93
2017-07-15T04:43:59.924Z,4.57
2017-07-15T04:46:28.127Z,4.53
2017-07-15T04:48:55.567Z,4.00
2017-07-15T04:53:55.465Z,4.33
2017-07-15T04:56:22.899Z,4.10
2017-07-15T04:58:50.350Z,5.20
2017-07-15T05:01:17.765Z,4.40
2017-07-15T05:03:45.210Z,4.40
2017-07-15T05:06:13.418Z,4.70
2017-07-15T05:08:40.835Z,4.77
2017-07-15T05:11:09.024Z,4.40
2017-07-15T05:13:36.458Z,4.70
2017-07-15T05:16:04.660Z,5.50
2017-07-15T05:18:32.077Z,4.90
2017-07-15T05:20:59.509Z,5.43
2017-07-15T05:23:26.956Z,5.37
2017-07-15T05:25:54.401Z,5.30
2017-07-15T05:28:21.827Z,5.30
2017-07-15T05:30:49.266Z,5.43
2017-07-15T05:33:17.465Z,5.60
2017-07-15T05:35:44.906Z,5.90
2017-07-15T05:38:13.106Z,6.20
2017-07-15T05:40:40.530Z,5.20
2017-07-15T05:43:07.954Z,6.03
2017-07-15T05:45:35.393Z,6.00
2017-07-15T05:48:02.818Z,5.60
2017-07-15T05:50:30.262Z,5.70
2017-07-15T05:52:58.448Z,6.00
2017-07-15T05:55:25.869Z,5.77
2017-07-15T05:57:54.070Z,5.77
2017-07-15T06:00:21.509Z,6.00
2017-07-15T06:02:49.702Z,6.93
2017-07-15T06:05:17.131Z,6.10
2017-07-15T06:07:44.558Z,5.80
2017-07-15T06:10:11.983Z,6.40
2017-07-15T06:12:39.421Z,7.27
2017-07-15T06:15:06.907Z,6.30
2017-07-15T06:17:34.333Z,5.87
2017-07-15T06:20:01.756Z,6.67
2017-07-15T06:22:29.193Z,6.70
2017-07-15T06:24:56.616Z,6.40
2017-07-15T06:27:24.108Z,6.30
2017-07-15T06:29:51.558Z,6.50
2017-07-15T06:32:18.998Z,5.83
2017-07-15T06:34:46.430Z,6.47
2017-07-15T06:37:13.853Z,6.43
2017-07-15T06:39:41.367Z,6.30
2017-07-15T06:42:08.770Z,6.33
2017-07-15T06:44:36.974Z,6.30
2017-07-15T06:47:04.405Z,5.67
2017-07-15T06:49:32.600Z,5.97
2017-07-15T06:52:00.021Z,6.57
2017-07-15T06:54:27.455Z,6.90
2017-07-15T06:56:54.881Z,7.00
2017-07-15T06:59:22.301Z,7.60
2017-07-15T07:01:50.506Z,6.93
2017-07-15T07:04:17.933Z,7.47
2017-07-15T07:06:45.373Z,7.10
2017-07-15T07:09:12.809Z,6.77
2017-07-15T07:11:40.224Z,7.17
2017-07-15T07:14:07.649Z,7.30
2017-07-15T07:16:35.846Z,7.60
2017-07-15T07:19:03.281Z,7.80
2017-07-15T07:21:31.480Z,7.13
2017-07-15T07:23:58.921Z,8.40
2017-07-15T07:26:27.120Z,8.07
2017-07-15T07:28:54.550Z,8.20
2017-07-15T07:31:21.979Z,8.13
2017-07-15T07:33:49.425Z,7.17
2017-07-15T07:36:16.845Z,7.83
2017-07-15T07:38:44.270Z,7.70
2017-07-15T07:41:11.694Z,8.27
2017-07-15T07:43:39.177Z,8.30
2017-07-15T07:46:06.630Z,8.27
2017-07-15T07:48:34.854Z,7.97
2017-07-15T07:51:02.284Z,7.10
2017-07-15T07:53:29.717Z,7.00
2017-07-15T07:55:57.921Z,7.97
2017-07-15T07:58:25.358Z,7.60
2017-07-15T08:00:52.834Z,8.30
2017-07-15T08:03:20.265Z,9.80
2017-07-15T08:05:47.706Z,7.63
2017-07-15T08:08:15.901Z,7.80
2017-07-15T08:10:43.334Z,7.97
2017-07-15T08:13:11.530Z,7.77
2017-07-15T08:15:38.957Z,8.30
2017-07-15T08:20:40.965Z,6.70
2017-07-15T08:23:08.396Z,7.67
2017-07-15T08:25:36.589Z,6.50
2017-07-15T08:28:04.037Z,6.93
2017-07-15T08:30:32.241Z,7.30
2017-07-15T08:32:59.661Z,7.30
2017-07-15T08:35:27.848Z,7.20
2017-07-15T08:37:55.284Z,6.50
2017-07-15T08:40:22.698Z,6.27
2017-07-15T08:42:50.125Z,6.33
2017-07-15T08:45:17.550Z,6.20
2017-07-15T08:47:44.974Z,5.70
2017-07-15T08:50:12.401Z,5.23
2017-07-15T08:52:39.840Z,5.23
2017-07-15T08:55:07.286Z,5.00
2017-07-15T08:57:35.519Z,4.70
2017-07-15T09:00:02.951Z,5.43
2017-07-15T09:02:30.551Z,5.90
2017-07-15T09:04:57.965Z,5.80
2017-07-15T09:07:25.434Z,5.40
2017-07-15T09:09:52.858Z,6.03
2017-07-15T09:12:20.307Z,5.47
2017-07-15T09:14:48.494Z,4.77
2017-07-15T09:17:15.910Z,4.73
2017-07-15T09:19:43.422Z,4.30
2017-07-15T09:22:10.880Z,5.60
2017-07-15T09:24:38.315Z,5.93
2017-07-15T09:27:05.738Z,5.50
2017-07-15T09:29:33.176Z,4.47
2017-07-15T09:32:00.603Z,4.13
2017-07-15T09:34:28.028Z,4.10
2017-07-15T09:36:55.461Z,3.80
2017-07-15T09:39:23.651Z,4.87
2017-07-15T09:41:51.836Z,4.90
2017-07-15T09:44:19.265Z,4.23
2017-07-15T09:46:47.457Z,3.20
2017-07-15T09:49:14.914Z,2.73
2017-07-15T09:51:43.108Z,2.90
2017-07-15T09:54:10.549Z,3.27
2017-07-15T09:56:37.965Z,3.40
2017-07-15T09:59:05.396Z,3.13
2017-07-15T10:01:32.835Z,3.50
2017-07-15T10:04:00.255Z,3.87
2017-07-15T10:06:28.462Z,4.10
2017-07-15T10:08:55.893Z,4.17
2017-07-15T10:11:24.090Z,4.37
2017-07-15T10:13:51.523Z,5.00
2017-07-15T10:16:19.711Z,4.37
2017-07-15T10:18:47.133Z,4.67
2017-07-15T10:21:15.337Z,4.80
2017-07-15T10:23:42.758Z,4.50
2017-07-15T10:26:10.191Z,4.47
2017-07-15T10:28:37.626Z,4.00
2017-07-15T10:31:05.064Z,3.83
2017-07-15T10:33:32.497Z,4.40
2017-07-15T10:35:59.942Z,4.40
2017-07-15T10:38:28.142Z,3.67
2017-07-15T10:40:55.579Z,4.10
2017-07-15T10:43:23.783Z,5.60
2017-07-15T10:46:12.621Z,4.30
2017-07-15T10:48:40.050Z,3.93
2017-07-15T10:51:07.524Z,4.00
2017-07-15T10:53:34.942Z,4.00
2017-07-15T10:56:02.371Z,4.00
2017-07-15T10:58:29.782Z,4.40
2017-07-15T11:00:57.980Z,3.83
2017-07-15T11:03:25.422Z,3.93
2017-07-15T11:05:53.605Z,4.00
2017-07-15T11:08:21.021Z,3.40
2017-07-15T11:10:48.444Z,3.30
2017-07-15T11:13:15.877Z,4.07
2017-07-15T11:15:43.303Z,3.00
2017-07-15T11:18:11.506Z,3.80
2017-07-15T11:20:38.921Z,3.57
2017-07-15T11:23:06.352Z,3.43
2017-07-15T11:25:33.778Z,4.03
2017-07-15T11:28:01.206Z,3.20
2017-07-15T11:30:29.430Z,3.00
2017-07-15T11:32:56.852Z,2.60
2017-07-15T11:35:24.277Z,2.83
2017-07-15T11:37:51.718Z,2.60
2017-07-15T11:40:19.158Z,2.90
2017-07-15T11:42:46.595Z,2.83
2017-07-15T11:45:14.016Z,2.60
2017-07-15T11:47:42.209Z,2.57
2017-07-15T11:50:09.701Z,3.30
2017-07-15T11:52:37.133Z,2.70
2017-07-15T11:55:04.561Z,2.77
2017-07-15T11:57:32.762Z,3.13
2017-07-15T12:00:00.246Z,2.70
2017-07-15T12:02:27.670Z,2.83
2017-07-15T12:04:55.103Z,3.10
2017-07-15T12:07:23.281Z,3.80
2017-07-15T12:09:50.706Z,2.60
2017-07-15T12:12:18.135Z,3.00
2017-07-15T12:14:45.587Z,3.00
2017-07-15T12:17:13.013Z,3.23
2017-07-15T12:19:40.430Z,2.97
2017-07-15T12:22:07.852Z,3.00
2017-07-15T12:24:35.281Z,2.77
2017-07-15T12:27:02.717Z,2.90
2017-07-15T12:29:30.913Z,2.80
2017-07-15T12:31:58.338Z,3.10
2017-07-15T12:34:25.774Z,3.30
2017-07-15T12:36:53.214Z,3.20
2017-07-15T12:39:20.637Z,3.20
2017-07-15T12:41:48.065Z,3.20
2017-07-15T12:44:15.525Z,2.83
2017-07-15T12:46:42.940Z,2.80
2017-07-15T12:49:10.375Z,2.80
2017-07-15T12:51:37.796Z,3.37
2017-07-15T12:54:05.986Z,2.80
2017-07-15T12:56:33.414Z,2.73
2017-07-15T12:59:01.605Z,2.50
2017-07-15T13:01:29.042Z,2.80
2017-07-15T13:03:56.506Z,2.50
2017-07-15T13:06:24.694Z,2.37
2017-07-15T13:08:53.561Z,2.60
2017-07-15T13:11:20.989Z,2.63
2017-07-15T13:13:48.414Z,2.70
2017-07-15T13:16:16.006Z,2.33
2017-07-15T13:18:44.206Z,2.57
2017-07-15T13:21:11.698Z,2.10
2017-07-15T13:23:39.144Z,1.87
2017-07-15T13:26:06.574Z,2.00
2017-07-15T13:28:34.075Z,1.60
2017-07-15T13:31:01.521Z,1.80
2017-07-15T13:33:28.975Z,1.97
2017-07-15T13:35:56.403Z,2.33
2017-07-15T13:38:23.839Z,2.10
2017-07-15T13:40:52.039Z,2.27
2017-07-15T13:43:19.472Z,2.87
2017-07-15T13:45:47.700Z,3.47
2017-07-15T13:48:15.136Z,2.80
2017-07-15T13:50:42.619Z,2.70
2017-07-15T13:53:10.123Z,2.40
2017-07-15T13:55:38.311Z,2.63
2017-07-15T13:58:05.741Z,2.20
2017-07-15T14:00:34.006Z,2.20
2017-07-15T14:03:08.177Z,2.30
2017-07-15T14:05:36.510Z,2.10
2017-07-15T14:08:04.017Z,1.80
2017-07-15T14:10:31.570Z,2.00
2017-07-15T14:12:59.030Z,2.13
2017-07-15T14:15:26.450Z,1.90
2017-07-15T14:17:53.888Z,1.90
2017-07-15T14:20:21.296Z,1.93
2017-07-15T14:22:48.753Z,2.07
2017-07-15T14:25:16.176Z,2.30
2017-07-15T14:27:43.660Z,2.10
2017-07-15T14:30:11.212Z,2.00
2017-07-15T14:32:38.621Z,2.57
2017-07-15T14:35:06.882Z,2.37
2017-07-15T14:37:34.405Z,2.10
2017-07-15T14:40:01.846Z,2.50
2017-07-15T14:42:29.279Z,1.90
2017-07-15T14:44:57.502Z,2.70
2017-07-15T14:47:24.925Z,2.43
2017-07-15T14:49:52.421Z,2.30
2017-07-15T14:52:19.849Z,2.30
2017-07-15T14:54:47.266Z,2.20
2017-07-15T14:57:14.695Z,3.33
2017-07-15T14:59:42.129Z,3.07
2017-07-15T15:02:09.555Z,2.40
2017-07-15T15:04:36.993Z,2.83
2017-07-15T15:07:05.191Z,2.50
2017-07-15T15:09:32.601Z,2.67
2017-07-15T15:12:00.113Z,2.50
2017-07-15T15:14:27.541Z,2.23
2017-07-15T15:16:54.963Z,2.47
2017-07-15T15:19:22.392Z,2.30
2017-07-15T15:21:49.810Z,2.43
2017-07-15T15:24:17.257Z,2.20
2017-07-15T15:26:45.453Z,2.30
2017-07-15T15:29:12.884Z,2.63
2017-07-15T15:31:41.076Z,2.63
2017-07-15T15:34:08.510Z,5.77
2017-07-15T15:36:36.706Z,2.20
2017-07-15T15:39:04.126Z,2.40
2017-07-15T15:41:31.541Z,2.03
2017-07-15T15:43:59.018Z,3.23
2017-07-15T15:46:26.432Z,2.53
2017-07-15T15:48:53.857Z,3.20
2017-07-15T15:51:22.052Z,2.43
2017-07-15T15:53:49.482Z,2.23
2017-07-15T15:56:17.015Z,2.30
2017-07-15T15:58:44.441Z,2.50
2017-07-15T16:01:11.849Z,1.97
2017-07-15T16:03:39.264Z,1.73
2017-07-15T16:06:06.697Z,1.73
2017-07-15T16:08:34.113Z,1.90
2017-07-15T16:11:01.668Z,1.90
2017-07-15T16:13:29.098Z,1.70
2017-07-15T16:15:56.557Z,1.67
2017-07-15T16:18:23.996Z,2.57
2017-07-15T16:20:51.473Z,2.67
2017-07-15T16:23:18.898Z,2.10
2017-07-15T16:25:46.317Z,1.80
2017-07-15T16:28:14.499Z,1.60
2017-07-15T16:30:42.693Z,1.80
2017-07-15T16:33:10.117Z,2.17
2017-07-15T16:35:38.369Z,1.80
2017-07-15T16:38:05.808Z,1.90
2017-07-15T16:40:33.229Z,1.80
2017-07-15T16:43:00.653Z,2.03
2017-07-15T16:45:29.580Z,1.73
2017-07-15T16:47:57.066Z,2.10
2017-07-15T16:50:24.509Z,1.77
2017-07-15T16:52:51.949Z,1.80
2017-07-15T16:55:19.374Z,2.10
2017-07-15T16:57:46.802Z,1.90
2017-07-15T17:00:14.223Z,2.00
2017-07-15T17:02:41.643Z,1.80
2017-07-15T17:05:09.069Z,1.50
2017-07-15T17:07:36.495Z,1.80
2017-07-15T17:10:03.921Z,1.93
2017-07-15T17:12:32.117Z,1.60
2017-07-15T17:14:59.526Z,1.60
2017-07-15T17:17:27.066Z,1.70
2017-07-15T17:19:54.482Z,2.07
2017-07-15T17:22:21.918Z,1.60
2017-07-15T17:24:50.334Z,1.83
2017-07-15T17:27:17.790Z,1.73
2017-07-15T17:29:45.195Z,1.63
2017-07-15T17:32:12.626Z,2.03
2017-07-15T17:34:40.054Z,1.60
2017-07-15T17:37:07.513Z,1.50
2017-07-15T17:39:34.973Z,1.53
2017-07-15T17:42:02.417Z,1.40
2017-07-15T17:44:29.831Z,1.70
2017-07-15T17:46:58.019Z,1.70
2017-07-15T17:49:26.209Z,2.00
2017-07-15T17:51:53.637Z,2.20
2017-07-15T17:54:21.853Z,1.60
2017-07-15T17:56:49.282Z,1.70
2017-07-15T17:59:16.709Z,1.70
2017-07-15T18:01:44.152Z,1.50
2017-07-15T18:04:11.585Z,1.30
2017-07-15T18:06:38.993Z,1.60
2017-07-15T18:09:06.433Z,1.73
2017-07-15T18:11:33.859Z,1.53
2017-07-15T18:14:01.403Z,1.77
2017-07-15T18:16:28.813Z,1.70
2017-07-15T18:18:56.996Z,1.90
2017-07-15T18:21:25.223Z,1.80
2017-07-15T18:26:26.642Z,1.90
2017-07-15T18:28:54.078Z,1.80
2017-07-15T18:31:22.437Z,2.20
2017-07-15T18:33:49.861Z,2.60
2017-07-15T18:36:17.312Z,2.83
2017-07-15T18:38:44.792Z,1.87
2017-07-15T18:41:12.232Z,1.83
2017-07-15T18:43:39.657Z,1.90
2017-07-15T18:46:07.081Z,2.50
2017-07-15T18:48:34.509Z,2.97
2017-07-15T18:51:01.941Z,2.33
2017-07-15T18:53:29.417Z,2.20
2017-07-15T18:55:56.844Z,1.83
2017-07-15T18:58:24.335Z,2.00
2017-07-15T19:00:51.748Z,2.90
2017-07-15T19:03:19.186Z,2.30
2017-07-15T19:05:46.652Z,2.43
2017-07-15T19:08:14.073Z,3.10
2017-07-15T19:10:41.516Z,2.80
2017-07-15T19:13:09.077Z,2.20
2017-07-15T19:15:36.521Z,2.20
2017-07-15T19:18:03.953Z,2.60
2017-07-15T19:20:32.144Z,2.67
2017-07-15T19:23:05.918Z,4.87
2017-07-15T19:25:33.375Z,3.23
2017-07-15T19:28:00.831Z,6.63
2017-07-15T19:30:28.253Z,3.30
2017-07-15T19:32:55.676Z,2.90
2017-07-15T19:35:23.104Z,2.73
2017-07-15T19:37:51.352Z,2.83
2017-07-15T19:40:18.763Z,2.80
2017-07-15T19:42:46.247Z,2.83
2017-07-15T19:45:13.788Z,2.90
2017-07-15T19:50:22.838Z,2.87
2017-07-15T19:52:50.261Z,2.70
2017-07-15T19:55:18.545Z,2.50
2017-07-15T19:57:46.842Z,2.60
2017-07-15T20:00:14.331Z,3.07
2017-07-15T20:02:41.947Z,3.00
2017-07-15T20:05:09.431Z,2.60
2017-07-15T20:07:36.989Z,3.57
2017-07-15T20:10:04.438Z,3.40
2017-07-15T20:12:31.965Z,3.00
2017-07-15T20:15:00.243Z,3.77
2017-07-15T20:17:28.556Z,3.17
2017-07-15T20:19:56.025Z,3.23
2017-07-15T20:22:23.588Z,3.23
2017-07-15T20:24:51.135Z,3.13
2017-07-15T20:27:18.582Z,3.13
2017-07-15T20:29:46.084Z,3.73
2017-07-15T20:32:13.543Z,3.60
2017-07-15T20:34:41.904Z,3.83
2017-07-15T20:37:13.399Z,3.90
2017-07-15T20:39:40.845Z,3.57
2017-07-15T20:42:08.367Z,4.00
2017-07-15T20:44:36.702Z,3.60
2017-07-15T20:47:04.213Z,3.23
2017-07-15T20:49:32.580Z,3.60
2017-07-15T20:52:15.755Z,3.90
2017-07-15T20:54:43.174Z,4.80
2017-07-15T20:57:11.425Z,4.50
2017-07-15T20:59:38.899Z,3.67
2017-07-15T21:02:07.265Z,3.83
2017-07-15T21:04:34.782Z,4.30
2017-07-15T21:07:02.228Z,3.73
2017-07-15T21:09:29.693Z,4.23
2017-07-15T21:11:57.157Z,4.10
2017-07-15T21:14:24.610Z,3.40
2017-07-15T21:16:52.117Z,3.47
2017-07-15T21:19:19.587Z,3.40
2017-07-15T21:21:58.662Z,4.07
2017-07-15T21:24:32.085Z,3.70
2017-07-15T21:27:00.897Z,3.70
2017-07-15T21:29:32.079Z,4.07
2017-07-15T21:31:59.489Z,4.17
2017-07-15T21:34:26.922Z,4.30
2017-07-15T21:36:54.356Z,3.90
2017-07-15T21:39:21.786Z,4.20
2017-07-15T21:41:50.006Z,4.30
2017-07-15T21:44:17.427Z,4.67
2017-07-15T21:46:44.966Z,11.03
2017-07-15T21:49:13.176Z,10.80
2017-07-15T21:51:40.616Z,11.27
2017-07-15T21:54:08.030Z,12.40
2017-07-15T21:56:35.466Z,8.47
2017-07-15T21:59:03.881Z,7.10
2017-07-15T22:01:31.539Z,6.30
2017-07-15T22:03:58.969Z,6.03
2017-07-15T22:06:26.433Z,5.60
2017-07-15T22:08:53.915Z,5.60
2017-07-15T22:11:21.385Z,5.57
2017-07-15T22:13:49.214Z,5.57
2017-07-15T22:16:17.628Z,7.00
2017-07-15T22:18:45.042Z,6.73
2017-07-15T22:21:12.469Z,6.70
2017-07-15T22:23:40.020Z,7.20
2017-07-15T22:26:07.450Z,6.10
2017-07-15T22:28:34.913Z,6.33
2017-07-15T22:31:02.361Z,5.33
2017-07-15T22:33:29.819Z,6.20
2017-07-15T22:35:57.257Z,7.17
2017-07-15T22:38:24.754Z,6.47
2017-07-15T22:40:52.181Z,7.07
2017-07-15T22:43:20.266Z,6.83
2017-07-15T22:45:47.679Z,6.50
2017-07-15T22:48:15.164Z,5.67
2017-07-15T22:50:42.594Z,6.23
2017-07-15T22:53:10.019Z,6.10
2017-07-15T22:55:37.446Z,5.40
2017-07-15T22:58:04.884Z,6.30
2017-07-15T23:00:32.392Z,5.50
2017-07-15T23:03:00.581Z,7.20
2017-07-15T23:05:28.029Z,6.20
2017-07-15T23:07:56.209Z,6.20
2017-07-15T23:10:24.419Z,5.63
2017-07-15T23:12:51.842Z,5.77
2017-07-15T23:15:19.270Z,6.10
2017-07-15T23:17:46.703Z,4.90
2017-07-15T23:20:14.130Z,5.47
2017-07-15T23:22:41.554Z,5.73
2017-07-15T23:25:09.745Z,5.77
2017-07-15T23:27:37.184Z,5.83
2017-07-15T23:30:04.603Z,4.67
2017-07-15T23:32:32.029Z,6.00
2017-07-15T23:34:59.454Z,5.17
2017-07-15T23:37:27.662Z,5.27
2017-07-15T23:39:55.091Z,5.43
2017-07-15T23:42:22.527Z,5.07
2017-07-15T23:44:49.955Z,4.53
2017-07-15T23:47:17.467Z,5.10
2017-07-15T23:49:45.638Z,4.83
2017-07-15T23:52:13.062Z,4.70
2017-07-15T23:54:40.490Z,5.17
2017-07-15T23:57:07.918Z,5.53
2017-07-15T23:59:35.341Z,5.40
